createdAt,value
2018-03-06T00:00:22.866Z,97873.32
2018-03-06T00:02:48.798Z,97867.86
2018-03-06T00:05:14.743Z,97865.33
2018-03-06T00:07:40.673Z,97865.29
2018-03-06T00:10:06.615Z,97860.13
2018-03-06T00:12:32.545Z,97862.92
2018-03-06T00:14:58.495Z,97863.18
2018-03-06T00:17:25.458Z,97854.70
2018-03-06T00:19:51.409Z,97850.56
2018-03-06T00:22:17.338Z,97851.13
2018-03-06T00:24:43.270Z,97852.53
2018-03-06T00:27:09.230Z,97846.56
2018-03-06T00:29:35.189Z,97856.05
2018-03-06T00:32:01.150Z,97846.53
2018-03-06T00:34:27.096Z,97851.61
2018-03-06T00:36:53.030Z,97855.09
2018-03-06T00:39:18.981Z,97850.14
2018-03-06T00:41:44.932Z,97844.44
2018-03-06T00:44:10.886Z,97846.63
2018-03-06T00:46:36.819Z,97842.91
2018-03-06T00:49:02.786Z,97839.38
2018-03-06T00:51:28.721Z,97839.30
2018-03-06T00:53:54.679Z,97842.08
2018-03-06T00:56:20.622Z,97825.14
2018-03-06T00:58:46.569Z,97836.64
2018-03-06T01:01:12.510Z,97832.84
2018-03-06T01:03:38.468Z,97825.06
2018-03-06T01:06:04.428Z,97822.63
2018-03-06T01:08:30.370Z,97820.03
2018-03-06T01:10:56.306Z,97818.21
2018-03-06T01:13:22.248Z,97815.77
2018-03-06T01:15:48.179Z,97813.48
2018-03-06T01:18:14.118Z,97806.84
2018-03-06T01:20:40.050Z,97808.28
2018-03-06T01:23:06.107Z,97812.02
2018-03-06T01:25:32.092Z,97801.55
2018-03-06T01:27:57.998Z,97802.67
2018-03-06T01:30:23.939Z,97805.63
2018-03-06T01:32:49.882Z,97793.92
2018-03-06T01:35:15.819Z,97795.75
2018-03-06T01:37:41.762Z,97791.42
2018-03-06T01:40:07.695Z,97795.23
2018-03-06T01:42:33.647Z,97791.42
2018-03-06T01:44:59.584Z,97797.64
2018-03-06T01:47:25.538Z,97787.65
2018-03-06T01:49:51.470Z,97793.52
2018-03-06T01:52:17.430Z,97789.03
2018-03-06T01:54:43.378Z,97790.25
2018-03-06T01:57:09.322Z,97790.31
2018-03-06T01:59:35.280Z,97785.75
2018-03-06T02:02:01.220Z,97781.20
2018-03-06T02:04:27.346Z,97779.23
2018-03-06T02:06:53.282Z,97776.77
2018-03-06T02:09:19.249Z,97768.48
2018-03-06T02:11:45.218Z,97766.03
2018-03-06T02:14:11.182Z,97761.97
2018-03-06T02:16:37.161Z,97760.66
2018-03-06T02:19:03.118Z,97762.66
2018-03-06T02:21:29.048Z,97761.97
2018-03-06T02:23:54.982Z,97764.03
2018-03-06T02:26:20.924Z,97759.41
2018-03-06T02:28:46.870Z,97754.03
2018-03-06T02:31:12.834Z,97742.25
2018-03-06T02:33:38.792Z,97746.92
2018-03-06T02:36:04.726Z,97734.48
2018-03-06T02:38:30.666Z,97737.49
2018-03-06T02:40:56.606Z,97725.91
2018-03-06T02:43:23.621Z,97732.88
2018-03-06T02:45:49.558Z,97726.16
2018-03-06T02:48:15.503Z,97726.14
2018-03-06T02:50:41.442Z,97726.08
2018-03-06T02:53:09.477Z,97720.81
2018-03-06T02:55:35.420Z,97718.75
2018-03-06T02:58:01.363Z,97717.59
2018-03-06T03:00:27.309Z,97717.13
2018-03-06T03:02:53.290Z,97711.36
2018-03-06T03:05:19.235Z,97712.61
2018-03-06T03:07:45.181Z,97706.78
2018-03-06T03:10:11.120Z,97712.66
2018-03-06T03:12:37.075Z,97705.90
2018-03-06T03:15:03.071Z,97705.56
2018-03-06T03:17:29.007Z,97701.00
2018-03-06T03:19:54.943Z,97699.31
2018-03-06T03:22:20.882Z,97695.09
2018-03-06T03:24:46.819Z,97694.73
2018-03-06T03:27:12.763Z,97690.66
2018-03-06T03:29:38.723Z,97688.56
2018-03-06T03:32:04.675Z,97698.05
2018-03-06T03:34:30.627Z,97690.16
2018-03-06T03:36:56.573Z,97685.13
2018-03-06T03:39:22.509Z,97689.73
2018-03-06T03:41:48.455Z,97685.61
2018-03-06T03:44:14.392Z,97682.59
2018-03-06T03:46:40.353Z,97683.55
2018-03-06T03:49:06.293Z,97676.35
2018-03-06T03:51:32.219Z,97670.56
2018-03-06T03:53:58.177Z,97671.45
2018-03-06T03:56:24.111Z,97671.29
2018-03-06T03:58:50.054Z,97671.47
2018-03-06T04:01:16.003Z,97661.16
2018-03-06T04:03:41.965Z,97659.53
2018-03-06T04:06:07.911Z,97660.30
2018-03-06T04:08:33.865Z,97665.30
2018-03-06T04:10:59.795Z,97669.03
2018-03-06T04:13:25.737Z,97663.72
2018-03-06T04:15:51.681Z,97666.19
2018-03-06T04:18:17.641Z,97664.91
2018-03-06T04:20:43.579Z,97666.19
2018-03-06T04:23:09.537Z,97666.16
2018-03-06T04:25:35.479Z,97664.42
2018-03-06T04:28:01.434Z,97661.17
2018-03-06T04:30:27.370Z,97668.56
2018-03-06T04:32:53.325Z,97658.59
2018-03-06T04:35:19.265Z,97666.52
2018-03-06T04:37:45.208Z,97659.05
2018-03-06T04:40:11.149Z,97659.82
2018-03-06T04:42:37.094Z,97661.07
2018-03-06T04:45:03.032Z,97659.89
2018-03-06T04:47:30.022Z,97648.69
2018-03-06T04:49:55.975Z,97655.73
2018-03-06T04:52:21.911Z,97652.89
2018-03-06T04:54:47.861Z,97651.55
2018-03-06T04:57:13.871Z,97654.05
2018-03-06T04:59:39.800Z,97650.77
2018-03-06T05:02:05.758Z,97657.01
2018-03-06T05:04:31.706Z,97653.30
2018-03-06T05:06:57.652Z,97647.10
2018-03-06T05:09:23.607Z,97652.42
2018-03-06T05:11:49.573Z,97649.58
2018-03-06T05:14:15.524Z,97647.92
2018-03-06T05:16:41.462Z,97650.01
2018-03-06T05:19:07.411Z,97652.49
2018-03-06T05:21:33.358Z,97649.61
2018-03-06T05:23:59.336Z,97645.42
2018-03-06T05:26:25.266Z,97641.69
2018-03-06T05:28:51.214Z,97643.40
2018-03-06T05:31:17.165Z,97647.56
2018-03-06T05:33:43.109Z,97640.92
2018-03-06T05:36:09.049Z,97634.70
2018-03-06T05:38:35.012Z,97633.40
2018-03-06T05:41:00.948Z,97630.48
2018-03-06T05:43:26.901Z,97628.84
2018-03-06T05:45:52.844Z,97628.77
2018-03-06T05:48:18.799Z,97631.32
2018-03-06T05:50:44.764Z,97625.94
2018-03-06T05:53:10.712Z,97624.69
2018-03-06T05:55:36.656Z,97625.53
2018-03-06T05:58:02.623Z,97608.50
2018-03-06T06:00:28.563Z,97633.03
2018-03-06T06:02:54.499Z,97626.41
2018-03-06T06:05:20.443Z,97624.75
2018-03-06T06:07:46.385Z,97629.31
2018-03-06T06:10:12.330Z,97628.09
2018-03-06T06:12:38.286Z,97631.38
2018-03-06T06:15:04.254Z,97626.41
2018-03-06T06:17:30.186Z,97623.50
2018-03-06T06:19:56.109Z,97621.81
2018-03-06T06:22:22.055Z,97621.84
2018-03-06T06:24:48.008Z,97622.69
2018-03-06T06:27:13.941Z,97628.08
2018-03-06T06:29:39.869Z,97619.78
2018-03-06T06:32:05.790Z,97625.16
2018-03-06T06:34:31.714Z,97623.03
2018-03-06T06:36:57.642Z,97621.85
2018-03-06T06:39:23.659Z,97619.77
2018-03-06T06:41:49.577Z,97618.55
2018-03-06T06:44:15.624Z,97628.50
2018-03-06T06:46:41.561Z,97626.82
2018-03-06T06:49:07.493Z,97618.55
2018-03-06T06:51:33.420Z,97618.13
2018-03-06T06:53:59.359Z,97601.94
2018-03-06T06:56:25.270Z,97614.80
2018-03-06T06:58:51.202Z,97616.88
2018-03-06T07:01:17.132Z,97619.78
2018-03-06T07:03:43.074Z,97605.67
2018-03-06T07:06:09.032Z,97621.84
2018-03-06T07:08:34.962Z,97613.55
2018-03-06T07:11:00.877Z,97621.44
2018-03-06T07:13:26.824Z,97616.46
2018-03-06T07:15:52.758Z,97614.80
2018-03-06T07:18:18.746Z,97618.12
2018-03-06T07:20:44.662Z,97611.91
2018-03-06T07:23:10.586Z,97615.20
2018-03-06T07:25:36.502Z,97621.86
2018-03-06T07:28:02.434Z,97620.61
2018-03-06T07:30:28.420Z,97618.12
2018-03-06T07:32:54.360Z,97612.28
2018-03-06T07:35:20.285Z,97611.88
2018-03-06T07:37:46.241Z,97615.63
2018-03-06T07:40:12.174Z,97608.56
2018-03-06T07:42:38.092Z,97615.20
2018-03-06T07:45:04.031Z,97615.22
2018-03-06T07:47:29.970Z,97618.52
2018-03-06T07:49:55.902Z,97616.05
2018-03-06T07:52:21.884Z,97613.98
2018-03-06T07:54:47.806Z,97615.22
2018-03-06T07:57:13.742Z,97621.04
2018-03-06T07:59:39.658Z,97617.70
2018-03-06T08:02:05.586Z,97617.30
2018-03-06T08:04:31.494Z,97613.55
2018-03-06T08:06:57.422Z,97611.89
2018-03-06T08:09:23.362Z,97608.98
2018-03-06T08:11:49.278Z,97606.06
2018-03-06T08:14:15.198Z,97615.63
2018-03-06T08:16:41.273Z,97600.67
2018-03-06T08:19:07.210Z,97603.16
2018-03-06T08:21:33.184Z,97606.10
2018-03-06T08:23:59.264Z,97597.37
2018-03-06T08:26:25.166Z,97593.63
2018-03-06T08:28:51.114Z,97595.70
2018-03-06T08:31:17.040Z,97595.30
2018-03-06T08:33:42.960Z,97596.95
2018-03-06T08:36:08.886Z,97597.35
2018-03-06T08:38:34.820Z,97600.26
2018-03-06T08:41:00.770Z,97599.45
2018-03-06T08:43:26.728Z,97594.45
2018-03-06T08:45:52.669Z,97595.72
2018-03-06T08:48:18.625Z,97601.10
2018-03-06T08:50:44.555Z,97592.37
2018-03-06T08:53:10.499Z,97587.39
2018-03-06T08:55:36.442Z,97589.88
2018-03-06T08:58:02.370Z,97592.37
2018-03-06T09:00:28.287Z,97590.67
2018-03-06T09:02:54.223Z,97589.47
2018-03-06T09:05:20.147Z,97584.09
2018-03-06T09:07:46.106Z,97597.32
2018-03-06T09:10:12.030Z,97585.69
2018-03-06T09:12:37.968Z,97573.70
2018-03-06T09:15:03.879Z,97601.92
2018-03-06T09:17:29.815Z,97584.09
2018-03-06T09:19:55.744Z,97582.00
2018-03-06T09:22:21.668Z,97582.43
2018-03-06T09:24:47.600Z,97582.84
2018-03-06T09:27:13.523Z,97580.75
2018-03-06T09:29:39.443Z,97573.72
2018-03-06T09:32:05.363Z,97583.23
2018-03-06T09:34:31.290Z,97575.38
2018-03-06T09:36:57.280Z,97583.27
2018-03-06T09:39:23.170Z,97584.07
2018-03-06T09:41:49.095Z,97588.22
2018-03-06T09:44:15.015Z,97587.78
2018-03-06T09:46:40.950Z,97581.59
2018-03-06T09:49:06.865Z,97590.31
2018-03-06T09:51:32.782Z,97587.82
2018-03-06T09:53:58.703Z,97599.45
2018-03-06T09:56:24.618Z,97582.83
2018-03-06T09:58:50.567Z,97581.20
2018-03-06T10:01:16.494Z,97577.44
2018-03-06T10:03:42.445Z,97584.08
2018-03-06T10:06:08.370Z,97584.50
2018-03-06T10:08:34.308Z,97578.72
2018-03-06T10:11:00.252Z,97572.88
2018-03-06T10:13:26.186Z,97572.44
2018-03-06T10:15:52.110Z,97575.77
2018-03-06T10:18:18.050Z,97572.41
2018-03-06T10:20:43.980Z,97569.95
2018-03-06T10:23:09.941Z,97571.23
2018-03-06T10:25:35.881Z,97568.76
2018-03-06T10:28:01.805Z,97566.66
2018-03-06T10:30:27.754Z,97565.81
2018-03-06T10:32:53.700Z,97560.38
2018-03-06T10:35:19.618Z,97564.16
2018-03-06T10:37:45.554Z,97560.03
2018-03-06T10:40:11.486Z,97559.19
2018-03-06T10:42:37.422Z,97565.00
2018-03-06T10:45:03.367Z,97551.30
2018-03-06T10:47:29.321Z,97554.23
2018-03-06T10:49:55.318Z,97550.04
2018-03-06T10:52:21.266Z,97546.33
2018-03-06T10:54:47.204Z,97544.67
2018-03-06T10:57:13.158Z,97541.79
2018-03-06T10:59:39.087Z,97535.97
2018-03-06T11:02:05.031Z,97536.34
2018-03-06T11:04:30.950Z,97538.78
2018-03-06T11:06:56.882Z,97528.91
2018-03-06T11:09:22.806Z,97530.51
2018-03-06T11:11:48.751Z,97524.30
2018-03-06T11:14:14.719Z,97520.97
2018-03-06T11:16:40.642Z,97526.02
2018-03-06T11:19:06.564Z,97534.30
2018-03-06T11:21:32.486Z,97526.38
2018-03-06T11:23:58.425Z,97520.16
2018-03-06T11:26:24.370Z,97519.31
2018-03-06T11:28:50.303Z,97521.39
2018-03-06T11:31:16.242Z,97519.33
2018-03-06T11:33:42.209Z,97524.25
2018-03-06T11:36:08.228Z,97513.92
2018-03-06T11:38:34.170Z,97510.97
2018-03-06T11:41:00.146Z,97510.10
2018-03-06T11:43:26.065Z,97503.36
2018-03-06T11:45:51.998Z,97502.92
2018-03-06T11:48:17.927Z,97499.18
2018-03-06T11:50:43.866Z,97500.41
2018-03-06T11:53:09.828Z,97495.78
2018-03-06T11:55:35.956Z,97496.64
2018-03-06T11:58:02.479Z,97489.94
2018-03-06T12:00:28.420Z,97491.46
2018-03-06T12:02:54.355Z,97488.13
2018-03-06T12:05:20.283Z,97489.38
2018-03-06T12:07:46.219Z,97485.78
2018-03-06T12:10:12.147Z,97482.84
2018-03-06T12:12:38.079Z,97487.13
2018-03-06T12:15:04.049Z,97481.08
2018-03-06T12:17:29.991Z,97482.30
2018-03-06T12:19:55.910Z,97477.62
2018-03-06T12:22:21.849Z,97479.24
2018-03-06T12:24:47.772Z,97475.44
2018-03-06T12:27:13.704Z,97471.77
2018-03-06T12:29:39.635Z,97467.37
2018-03-06T12:32:05.578Z,97471.77
2018-03-06T12:34:31.511Z,97468.83
2018-03-06T12:36:57.443Z,97471.32
2018-03-06T12:39:23.413Z,97465.07
2018-03-06T12:41:49.347Z,97471.21
2018-03-06T12:44:15.335Z,97467.78
2018-03-06T12:46:41.239Z,97462.97
2018-03-06T12:49:07.169Z,97462.59
2018-03-06T12:51:33.103Z,97457.56
2018-03-06T12:53:59.053Z,97458.67
2018-03-06T12:56:24.991Z,97454.79
2018-03-06T12:58:50.923Z,97452.84
2018-03-06T13:01:16.872Z,97446.97
2018-03-06T13:03:42.791Z,97451.53
2018-03-06T13:06:08.754Z,97449.38
2018-03-06T13:08:34.672Z,97453.26
2018-03-06T13:11:00.620Z,97448.75
2018-03-06T13:13:26.546Z,97446.64
2018-03-06T13:15:52.483Z,97441.42
2018-03-06T13:18:18.400Z,97437.55
2018-03-06T13:20:44.355Z,97433.30
2018-03-06T13:23:10.276Z,97436.44
2018-03-06T13:25:36.218Z,97436.77
2018-03-06T13:28:02.175Z,97437.11
2018-03-06T13:30:28.107Z,97435.88
2018-03-06T13:32:54.050Z,97433.06
2018-03-06T13:35:19.999Z,97440.83
2018-03-06T13:37:45.927Z,97442.19
2018-03-06T13:40:11.871Z,97445.83
2018-03-06T13:42:37.795Z,97439.94
2018-03-06T13:45:03.739Z,97438.72
2018-03-06T13:47:29.687Z,97443.55
2018-03-06T13:49:55.619Z,97441.54
2018-03-06T13:52:21.594Z,97437.92
2018-03-06T13:54:47.471Z,97429.28
2018-03-06T13:57:13.396Z,97437.66
2018-03-06T13:59:39.323Z,97437.23
2018-03-06T14:02:05.251Z,97436.51
2018-03-06T14:04:31.165Z,97437.73
2018-03-06T14:06:57.106Z,97433.81
2018-03-06T14:09:23.031Z,97441.69
2018-03-06T14:11:48.946Z,97440.82
2018-03-06T14:14:14.871Z,97438.30
2018-03-06T14:16:40.832Z,97436.62
2018-03-06T14:19:06.771Z,97435.56
2018-03-06T14:21:32.699Z,97434.52
2018-03-06T14:23:58.622Z,97432.89
2018-03-06T14:26:24.551Z,97429.66
2018-03-06T14:28:50.481Z,97434.20
2018-03-06T14:31:16.411Z,97434.51
2018-03-06T14:33:42.336Z,97431.30
2018-03-06T14:36:08.266Z,97431.94
2018-03-06T14:38:34.193Z,97429.16
2018-03-06T14:41:00.110Z,97425.69
2018-03-06T14:43:26.033Z,97431.43
2018-03-06T14:45:51.959Z,97429.16
2018-03-06T14:48:17.879Z,97427.16
2018-03-06T14:50:43.799Z,97422.56
2018-03-06T14:53:09.719Z,97423.39
2018-03-06T14:55:35.647Z,97421.38
2018-03-06T14:58:01.640Z,97420.58
2018-03-06T15:00:27.562Z,97418.89
2018-03-06T15:02:53.487Z,97416.77
2018-03-06T15:05:19.436Z,97417.75
2018-03-06T15:07:45.367Z,97417.39
2018-03-06T15:10:11.284Z,97416.54
2018-03-06T15:12:37.223Z,97412.75
2018-03-06T15:15:03.143Z,97410.42
2018-03-06T15:17:29.057Z,97403.31
2018-03-06T15:19:54.984Z,97400.37
2018-03-06T15:22:20.915Z,97409.92
2018-03-06T15:24:46.931Z,97400.33
2018-03-06T15:27:12.856Z,97403.12
2018-03-06T15:29:38.851Z,97405.36
2018-03-06T15:32:04.773Z,97405.30
2018-03-06T15:34:30.738Z,97402.42
2018-03-06T15:36:56.659Z,97406.42
2018-03-06T15:39:24.603Z,97403.10
2018-03-06T15:41:50.556Z,97405.15
2018-03-06T15:44:16.488Z,97404.77
2018-03-06T15:46:42.464Z,97413.93
2018-03-06T15:49:08.412Z,97411.75
2018-03-06T15:51:34.357Z,97415.06
2018-03-06T15:54:00.374Z,97413.81
2018-03-06T15:56:26.322Z,97406.59
2018-03-06T15:58:52.258Z,97411.63
2018-03-06T16:01:18.196Z,97409.69
2018-03-06T16:03:44.114Z,97412.95
2018-03-06T16:06:10.069Z,97414.63
2018-03-06T16:08:36.030Z,97416.87
2018-03-06T16:11:01.982Z,97407.07
2018-03-06T16:13:27.936Z,97416.16
2018-03-06T16:15:53.874Z,97411.97
2018-03-06T16:18:19.800Z,97412.42
2018-03-06T16:20:45.792Z,97413.41
2018-03-06T16:23:11.726Z,97417.27
2018-03-06T16:25:38.798Z,97418.62
2018-03-06T16:28:04.746Z,97419.81
2018-03-06T16:30:30.705Z,97421.16
2018-03-06T16:32:56.644Z,97424.87
2018-03-06T16:35:22.587Z,97427.79
2018-03-06T16:37:48.792Z,97427.69
2018-03-06T16:40:14.749Z,97425.72
2018-03-06T16:42:40.710Z,97424.91
2018-03-06T16:45:06.692Z,97428.19
2018-03-06T16:47:32.630Z,97403.27
2018-03-06T16:49:58.571Z,97429.42
2018-03-06T16:52:24.507Z,97430.20
2018-03-06T16:54:50.468Z,97421.16
2018-03-06T16:57:21.124Z,97429.00
2018-03-06T16:59:47.161Z,97427.45
2018-03-06T17:02:13.107Z,97428.30
2018-03-06T17:04:39.026Z,97434.95
2018-03-06T17:07:05.070Z,97428.64
2018-03-06T17:09:31.076Z,97435.37
2018-03-06T17:11:57.013Z,97430.41
2018-03-06T17:14:22.949Z,97427.44
2018-03-06T17:16:48.893Z,97432.39
2018-03-06T17:19:14.830Z,97432.42
2018-03-06T17:21:40.777Z,97434.94
2018-03-06T17:24:06.719Z,97437.52
2018-03-06T17:26:32.688Z,97433.77
2018-03-06T17:28:58.656Z,97432.86
2018-03-06T17:31:24.680Z,97427.03
2018-03-06T17:33:50.629Z,97431.28
2018-03-06T17:36:16.676Z,97431.25
2018-03-06T17:38:42.616Z,97436.20
2018-03-06T17:41:08.680Z,97434.15
2018-03-06T17:43:34.649Z,97434.21
2018-03-06T17:46:00.604Z,97432.06
2018-03-06T17:48:26.539Z,97431.99
2018-03-06T17:50:52.481Z,97434.58
2018-03-06T17:53:18.423Z,97437.91
2018-03-06T17:55:44.349Z,97432.11
2018-03-06T17:58:10.287Z,97436.25
2018-03-06T18:00:36.247Z,97437.19
2018-03-06T18:03:02.185Z,97433.42
2018-03-06T18:05:28.147Z,97435.92
2018-03-06T18:07:54.137Z,97436.34
2018-03-06T18:10:20.095Z,97431.81
2018-03-06T18:12:46.066Z,97427.11
2018-03-06T18:15:12.002Z,97422.13
2018-03-06T18:17:37.934Z,97431.78
2018-03-06T18:20:03.861Z,97429.27
2018-03-06T18:22:29.894Z,97426.39
2018-03-06T18:24:55.837Z,97426.00
2018-03-06T18:27:21.781Z,97425.98
2018-03-06T18:29:47.835Z,97427.59
2018-03-06T18:32:13.774Z,97421.36
2018-03-06T18:34:39.740Z,97424.27
2018-03-06T18:37:05.687Z,97415.20
2018-03-06T18:39:35.448Z,97423.52
2018-03-06T18:42:03.937Z,97424.70
2018-03-06T18:44:29.926Z,97430.06
2018-03-06T18:46:55.932Z,97422.69
2018-03-06T18:49:21.928Z,97420.97
2018-03-06T18:51:47.863Z,97425.51
2018-03-06T18:54:13.832Z,97423.80
2018-03-06T18:56:39.766Z,97420.84
2018-03-06T18:59:05.740Z,97417.63
2018-03-06T19:01:31.671Z,97411.92
2018-03-06T19:03:58.234Z,97413.11
2018-03-06T19:06:24.192Z,97418.87
2018-03-06T19:08:50.156Z,97421.31
2018-03-06T19:11:16.089Z,97412.97
2018-03-06T19:13:42.033Z,97414.29
2018-03-06T19:16:07.999Z,97411.02
2018-03-06T19:18:34.042Z,97406.89
2018-03-06T19:21:00.023Z,97410.06
2018-03-06T19:23:26.013Z,97407.99
2018-03-06T19:25:51.945Z,97407.53
2018-03-06T19:28:17.899Z,97403.97
2018-03-06T19:30:43.857Z,97403.94
2018-03-06T19:33:09.823Z,97404.42
2018-03-06T19:35:35.793Z,97393.68
2018-03-06T19:38:01.861Z,97394.01
2018-03-06T19:40:27.829Z,97401.95
2018-03-06T19:42:53.830Z,97395.66
2018-03-06T19:45:19.803Z,97393.13
2018-03-06T19:47:45.827Z,97397.70
2018-03-06T19:50:12.430Z,97396.56
2018-03-06T19:52:38.797Z,97397.39
2018-03-06T19:55:04.857Z,97398.67
2018-03-06T19:57:30.879Z,97396.13
2018-03-06T19:59:57.551Z,97400.58
2018-03-06T20:02:23.548Z,97398.47
2018-03-06T20:04:49.508Z,97395.61
2018-03-06T20:07:16.143Z,97397.72
2018-03-06T20:09:42.086Z,97396.47
2018-03-06T20:12:08.044Z,97396.47
2018-03-06T20:14:34.019Z,97394.89
2018-03-06T20:17:00.064Z,97395.31
2018-03-06T20:19:25.991Z,97391.52
2018-03-06T20:21:51.931Z,97396.49
2018-03-06T20:24:17.886Z,97393.98
2018-03-06T20:26:43.872Z,97397.30
2018-03-06T20:29:09.836Z,97398.38
2018-03-06T20:31:35.779Z,97388.95
2018-03-06T20:34:01.842Z,97393.63
2018-03-06T20:36:27.739Z,97390.95
2018-03-06T20:38:53.683Z,97394.37
2018-03-06T20:41:19.699Z,97392.14
2018-03-06T20:43:45.665Z,97393.52
2018-03-06T20:46:11.746Z,97397.74
2018-03-06T20:48:37.710Z,97395.94
2018-03-06T20:51:03.666Z,97395.23
2018-03-06T20:53:29.718Z,97395.00
2018-03-06T20:55:55.765Z,97397.46
2018-03-06T20:58:21.729Z,97392.33
2018-03-06T21:00:47.814Z,97390.27
2018-03-06T21:03:13.774Z,97392.13
2018-03-06T21:05:39.737Z,97384.34
2018-03-06T21:08:05.676Z,97380.22
2018-03-06T21:10:31.603Z,97384.91
2018-03-06T21:12:57.566Z,97378.98
2018-03-06T21:15:23.501Z,97379.02
2018-03-06T21:17:49.439Z,97374.84
2018-03-06T21:20:15.395Z,97379.52
2018-03-06T21:22:41.350Z,97381.41
2018-03-06T21:25:07.333Z,97377.02
2018-03-06T21:27:33.327Z,97374.70
2018-03-06T21:29:59.300Z,97375.97
2018-03-06T21:32:25.251Z,97375.78
2018-03-06T21:34:51.264Z,97370.31
2018-03-06T21:37:17.203Z,97368.73
2018-03-06T21:39:43.139Z,97366.20
2018-03-06T21:42:09.100Z,97369.48
2018-03-06T21:44:35.067Z,97363.27
2018-03-06T21:47:01.717Z,97363.97
2018-03-06T21:49:27.701Z,97360.20
2018-03-06T21:51:53.690Z,97359.15
2018-03-06T21:54:19.640Z,97359.88
2018-03-06T21:56:45.632Z,97363.75
2018-03-06T21:59:11.565Z,97356.73
2018-03-06T22:01:37.544Z,97356.34
2018-03-06T22:04:03.510Z,97359.56
2018-03-06T22:06:29.460Z,97361.98
2018-03-06T22:08:55.398Z,97363.61
2018-03-06T22:11:21.444Z,97362.56
2018-03-06T22:13:47.374Z,97360.91
2018-03-06T22:16:13.314Z,97360.89
2018-03-06T22:18:39.247Z,97357.53
2018-03-06T22:21:05.232Z,97358.40
2018-03-06T22:23:31.197Z,97362.95
2018-03-06T22:25:57.128Z,97356.78
2018-03-06T22:28:23.057Z,97357.94
2018-03-06T22:30:48.997Z,97357.16
2018-03-06T22:33:14.936Z,97365.83
2018-03-06T22:35:40.911Z,97362.19
2018-03-06T22:38:06.856Z,97359.20
2018-03-06T22:40:32.790Z,97362.09
2018-03-06T22:42:58.713Z,97358.27
2018-03-06T22:45:24.647Z,97359.13
2018-03-06T22:47:50.583Z,97358.75
2018-03-06T22:50:16.637Z,97362.08
2018-03-06T22:52:42.565Z,97364.20
2018-03-06T22:55:08.494Z,97372.05
2018-03-06T22:57:34.441Z,97368.71
2018-03-06T23:00:00.400Z,97367.48
2018-03-06T23:02:26.326Z,97373.26
2018-03-06T23:04:52.257Z,97371.67
2018-03-06T23:07:18.189Z,97370.38
2018-03-06T23:09:44.108Z,97368.33
2018-03-06T23:12:10.029Z,97365.79
2018-03-06T23:14:35.946Z,97357.88
2018-03-06T23:17:01.900Z,97365.77
2018-03-06T23:19:27.819Z,97362.43
2018-03-06T23:21:53.742Z,97368.74
2018-03-06T23:24:19.661Z,97368.33
2018-03-06T23:26:45.586Z,97373.77
2018-03-06T23:29:11.516Z,97371.27
2018-03-06T23:31:37.434Z,97367.54
2018-03-06T23:34:03.367Z,97368.59
2018-03-06T23:36:29.287Z,97378.34
2018-03-06T23:38:55.218Z,97376.77
2018-03-06T23:41:21.195Z,97373.98
2018-03-06T23:43:47.112Z,97374.55
2018-03-06T23:46:13.039Z,97379.37
2018-03-06T23:48:38.958Z,97376.50
2018-03-06T23:51:04.875Z,97379.20
2018-03-06T23:53:31.882Z,97377.08
2018-03-06T23:55:57.810Z,97378.30
2018-03-06T23:58:23.731Z,97378.73
